sensor_id;sensor_type;location;lat;lon;timestamp;P1;durP1;ratioP1;P2;durP2;ratioP2
72286;SDS011;60221;45.696;16.076;2023-03-26T00:00:51;13.20;;;2.90;;
72286;SDS011;60221;45.696;16.076;2023-03-26T00:03:20;8.40;;;2.60;;
72286;SDS011;60221;45.696;16.076;2023-03-26T00:05:48;9.40;;;3.80;;
72286;SDS011;60221;45.696;16.076;2023-03-26T00:08:15;10.70;;;3.70;;
72286;SDS011;60221;45.696;16.076;2023-03-26T00:10:42;8.70;;;3.00;;
72286;SDS011;60221;45.696;16.076;2023-03-26T00:13:10;8.10;;;2.30;;
72286;SDS011;60221;45.696;16.076;2023-03-26T00:15:37;9.00;;;2.50;;
72286;SDS011;60221;45.696;16.076;2023-03-26T00:18:04;7.10;;;2.30;;
72286;SDS011;60221;45.696;16.076;2023-03-26T00:20:31;6.50;;;2.10;;
72286;SDS011;60221;45.696;16.076;2023-03-26T00:23:01;7.10;;;2.20;;
72286;SDS011;60221;45.696;16.076;2023-03-26T00:25:28;6.80;;;2.50;;
72286;SDS011;60221;45.696;16.076;2023-03-26T00:27:55;8.60;;;2.90;;
72286;SDS011;60221;45.696;16.076;2023-03-26T00:30:22;9.00;;;4.10;;
72286;SDS011;60221;45.696;16.076;2023-03-26T00:32:49;8.10;;;2.40;;
72286;SDS011;60221;45.696;16.076;2023-03-26T00:35:19;8.30;;;2.30;;
72286;SDS011;60221;45.696;16.076;2023-03-26T00:37:47;8.00;;;3.20;;
72286;SDS011;60221;45.696;16.076;2023-03-26T00:40:17;5.70;;;2.00;;
72286;SDS011;60221;45.696;16.076;2023-03-26T00:42:44;6.90;;;1.90;;
72286;SDS011;60221;45.696;16.076;2023-03-26T00:45:11;6.40;;;2.10;;
72286;SDS011;60221;45.696;16.076;2023-03-26T00:47:38;8.40;;;3.00;;
72286;SDS011;60221;45.696;16.076;2023-03-26T00:50:06;9.80;;;3.10;;
72286;SDS011;60221;45.696;16.076;2023-03-26T00:52:41;10.30;;;2.60;;
72286;SDS011;60221;45.696;16.076;2023-03-26T00:55:09;8.40;;;2.50;;
72286;SDS011;60221;45.696;16.076;2023-03-26T00:57:36;7.90;;;2.80;;
72286;SDS011;60221;45.696;16.076;2023-03-26T01:00:06;7.90;;;2.50;;
72286;SDS011;60221;45.696;16.076;2023-03-26T01:02:36;6.80;;;2.60;;
72286;SDS011;60221;45.696;16.076;2023-03-26T01:05:37;8.10;;;2.40;;
72286;SDS011;60221;45.696;16.076;2023-03-26T01:07:51;8.10;;;2.80;;
72286;SDS011;60221;45.696;16.076;2023-03-26T01:10:18;6.80;;;2.70;;
72286;SDS011;60221;45.696;16.076;2023-03-26T01:12:48;5.60;;;2.00;;
72286;SDS011;60221;45.696;16.076;2023-03-26T01:15:15;7.50;;;2.10;;
72286;SDS011;60221;45.696;16.076;2023-03-26T01:17:42;6.00;;;1.80;;
72286;SDS011;60221;45.696;16.076;2023-03-26T01:20:11;7.10;;;2.10;;
72286;SDS011;60221;45.696;16.076;2023-03-26T01:22:41;6.10;;;2.10;;
72286;SDS011;60221;45.696;16.076;2023-03-26T01:25:10;6.20;;;1.80;;
72286;SDS011;60221;45.696;16.076;2023-03-26T01:27:39;6.10;;;1.70;;
72286;SDS011;60221;45.696;16.076;2023-03-26T01:30:54;5.30;;;1.60;;
72286;SDS011;60221;45.696;16.076;2023-03-26T01:33:04;5.90;;;1.60;;
72286;SDS011;60221;45.696;16.076;2023-03-26T01:45:43;8.10;;;1.60;;
72286;SDS011;60221;45.696;16.076;2023-03-26T01:48:11;7.70;;;1.90;;
72286;SDS011;60221;45.696;16.076;2023-03-26T01:50:39;5.60;;;1.50;;
72286;SDS011;60221;45.696;16.076;2023-03-26T01:53:06;5.50;;;1.50;;
72286;SDS011;60221;45.696;16.076;2023-03-26T01:55:50;6.20;;;2.00;;
72286;SDS011;60221;45.696;16.076;2023-03-26T01:58:26;4.50;;;1.00;;
72286;SDS011;60221;45.696;16.076;2023-03-26T02:03:33;5.70;;;1.30;;
72286;SDS011;60221;45.696;16.076;2023-03-26T02:06:06;6.00;;;1.50;;
72286;SDS011;60221;45.696;16.076;2023-03-26T02:08:37;7.10;;;2.00;;
72286;SDS011;60221;45.696;16.076;2023-03-26T02:11:11;5.80;;;1.30;;
72286;SDS011;60221;45.696;16.076;2023-03-26T02:13:39;5.70;;;1.40;;
72286;SDS011;60221;45.696;16.076;2023-03-26T02:16:08;6.00;;;1.60;;
72286;SDS011;60221;45.696;16.076;2023-03-26T02:18:37;6.20;;;1.80;;
72286;SDS011;60221;45.696;16.076;2023-03-26T02:21:09;5.20;;;1.30;;
72286;SDS011;60221;45.696;16.076;2023-03-26T02:23:39;4.20;;;0.90;;
72286;SDS011;60221;45.696;16.076;2023-03-26T02:26:08;9.60;;;3.00;;
72286;SDS011;60221;45.696;16.076;2023-03-26T02:28:41;8.70;;;2.40;;
72286;SDS011;60221;45.696;16.076;2023-03-26T02:31:08;7.60;;;1.70;;
72286;SDS011;60221;45.696;16.076;2023-03-26T02:33:39;6.10;;;1.90;;
72286;SDS011;60221;45.696;16.076;2023-03-26T02:36:06;6.40;;;1.20;;
72286;SDS011;60221;45.696;16.076;2023-03-26T02:38:34;4.50;;;0.70;;
72286;SDS011;60221;45.696;16.076;2023-03-26T02:41:01;5.70;;;1.20;;
72286;SDS011;60221;45.696;16.076;2023-03-26T02:43:38;6.00;;;1.30;;
72286;SDS011;60221;45.696;16.076;2023-03-26T02:46:06;8.30;;;2.00;;
72286;SDS011;60221;45.696;16.076;2023-03-26T02:48:51;7.60;;;2.20;;
72286;SDS011;60221;45.696;16.076;2023-03-26T02:51:23;6.40;;;1.60;;
72286;SDS011;60221;45.696;16.076;2023-03-26T02:53:58;4.80;;;1.20;;
72286;SDS011;60221;45.696;16.076;2023-03-26T02:56:27;6.30;;;1.40;;
72286;SDS011;60221;45.696;16.076;2023-03-26T02:59:04;4.70;;;1.30;;
72286;SDS011;60221;45.696;16.076;2023-03-26T03:01:31;5.10;;;1.20;;
72286;SDS011;60221;45.696;16.076;2023-03-26T03:04:01;4.90;;;1.60;;
72286;SDS011;60221;45.696;16.076;2023-03-26T03:06:35;6.30;;;1.10;;
72286;SDS011;60221;45.696;16.076;2023-03-26T03:09:04;6.40;;;1.70;;
72286;SDS011;60221;45.696;16.076;2023-03-26T03:11:34;6.70;;;1.40;;
72286;SDS011;60221;45.696;16.076;2023-03-26T03:14:01;6.00;;;1.40;;
72286;SDS011;60221;45.696;16.076;2023-03-26T03:16:29;6.70;;;1.80;;
72286;SDS011;60221;45.696;16.076;2023-03-26T03:19:01;4.80;;;1.30;;
72286;SDS011;60221;45.696;16.076;2023-03-26T03:21:34;5.80;;;1.60;;
72286;SDS011;60221;45.696;16.076;2023-03-26T03:24:01;5.50;;;1.60;;
72286;SDS011;60221;45.696;16.076;2023-03-26T03:26:32;4.70;;;1.60;;
72286;SDS011;60221;45.696;16.076;2023-03-26T03:29:10;6.80;;;1.70;;
72286;SDS011;60221;45.696;16.076;2023-03-26T03:31:38;6.50;;;1.80;;
72286;SDS011;60221;45.696;16.076;2023-03-26T03:34:14;6.50;;;1.70;;
72286;SDS011;60221;45.696;16.076;2023-03-26T03:36:44;5.90;;;1.70;;
72286;SDS011;60221;45.696;16.076;2023-03-26T03:39:23;5.70;;;1.60;;
72286;SDS011;60221;45.696;16.076;2023-03-26T03:41:50;6.80;;;2.10;;
72286;SDS011;60221;45.696;16.076;2023-03-26T03:44:17;5.40;;;1.80;;
72286;SDS011;60221;45.696;16.076;2023-03-26T03:46:45;6.10;;;1.80;;
72286;SDS011;60221;45.696;16.076;2023-03-26T03:49:14;7.30;;;2.20;;
72286;SDS011;60221;45.696;16.076;2023-03-26T03:51:42;9.30;;;3.10;;
72286;SDS011;60221;45.696;16.076;2023-03-26T03:54:24;6.70;;;2.10;;
72286;SDS011;60221;45.696;16.076;2023-03-26T03:57:02;6.50;;;2.60;;
72286;SDS011;60221;45.696;16.076;2023-03-26T03:59:38;7.50;;;3.10;;
72286;SDS011;60221;45.696;16.076;2023-03-26T04:02:14;10.10;;;3.80;;
72286;SDS011;60221;45.696;16.076;2023-03-26T04:04:48;10.20;;;3.30;;
72286;SDS011;60221;45.696;16.076;2023-03-26T04:07:18;8.00;;;3.10;;
72286;SDS011;60221;45.696;16.076;2023-03-26T04:10:13;7.00;;;1.70;;
72286;SDS011;60221;45.696;16.076;2023-03-26T04:13:18;8.80;;;2.50;;
72286;SDS011;60221;45.696;16.076;2023-03-26T04:16:04;7.00;;;2.40;;
72286;SDS011;60221;45.696;16.076;2023-03-26T04:18:32;7.80;;;2.90;;
72286;SDS011;60221;45.696;16.076;2023-03-26T04:21:05;9.10;;;3.20;;
72286;SDS011;60221;45.696;16.076;2023-03-26T04:23:33;7.90;;;2.70;;
72286;SDS011;60221;45.696;16.076;2023-03-26T04:26:20;7.60;;;2.70;;
72286;SDS011;60221;45.696;16.076;2023-03-26T04:29:01;8.10;;;3.10;;
72286;SDS011;60221;45.696;16.076;2023-03-26T04:31:30;7.00;;;2.40;;
72286;SDS011;60221;45.696;16.076;2023-03-26T04:33:59;9.30;;;3.10;;
72286;SDS011;60221;45.696;16.076;2023-03-26T04:36:31;6.30;;;2.10;;
72286;SDS011;60221;45.696;16.076;2023-03-26T04:39:00;8.30;;;3.00;;
72286;SDS011;60221;45.696;16.076;2023-03-26T04:41:50;9.00;;;3.70;;
72286;SDS011;60221;45.696;16.076;2023-03-26T04:44:19;8.80;;;3.60;;
72286;SDS011;60221;45.696;16.076;2023-03-26T04:46:56;11.50;;;3.40;;
72286;SDS011;60221;45.696;16.076;2023-03-26T04:49:33;8.60;;;3.40;;
72286;SDS011;60221;45.696;16.076;2023-03-26T04:52:00;8.60;;;3.20;;
72286;SDS011;60221;45.696;16.076;2023-03-26T04:54:50;8.10;;;2.40;;
72286;SDS011;60221;45.696;16.076;2023-03-26T04:57:26;8.50;;;3.10;;
72286;SDS011;60221;45.696;16.076;2023-03-26T05:00:03;8.80;;;3.70;;
72286;SDS011;60221;45.696;16.076;2023-03-26T05:02:48;9.10;;;3.40;;
72286;SDS011;60221;45.696;16.076;2023-03-26T05:05:16;9.40;;;3.90;;
72286;SDS011;60221;45.696;16.076;2023-03-26T05:07:43;11.10;;;4.40;;
72286;SDS011;60221;45.696;16.076;2023-03-26T05:10:12;11.10;;;4.80;;
72286;SDS011;60221;45.696;16.076;2023-03-26T05:13:02;11.00;;;4.00;;
72286;SDS011;60221;45.696;16.076;2023-03-26T05:15:33;11.30;;;4.40;;
72286;SDS011;60221;45.696;16.076;2023-03-26T05:18:07;10.90;;;5.20;;
72286;SDS011;60221;45.696;16.076;2023-03-26T05:20:40;11.60;;;5.70;;
72286;SDS011;60221;45.696;16.076;2023-03-26T05:23:07;12.50;;;5.70;;
72286;SDS011;60221;45.696;16.076;2023-03-26T05:25:36;10.40;;;4.90;;
72286;SDS011;60221;45.696;16.076;2023-03-26T05:28:09;9.10;;;4.60;;
72286;SDS011;60221;45.696;16.076;2023-03-26T05:30:46;9.90;;;4.70;;
72286;SDS011;60221;45.696;16.076;2023-03-26T05:33:13;10.90;;;4.80;;
72286;SDS011;60221;45.696;16.076;2023-03-26T05:35:46;11.40;;;4.50;;
72286;SDS011;60221;45.696;16.076;2023-03-26T05:38:15;10.60;;;4.80;;
72286;SDS011;60221;45.696;16.076;2023-03-26T05:40:43;10.50;;;5.50;;
72286;SDS011;60221;45.696;16.076;2023-03-26T05:43:14;13.10;;;6.50;;
72286;SDS011;60221;45.696;16.076;2023-03-26T05:45:48;11.00;;;5.30;;
72286;SDS011;60221;45.696;16.076;2023-03-26T05:48:19;13.40;;;5.50;;
72286;SDS011;60221;45.696;16.076;2023-03-26T05:50:47;12.30;;;5.60;;
72286;SDS011;60221;45.696;16.076;2023-03-26T05:53:15;12.80;;;5.70;;
72286;SDS011;60221;45.696;16.076;2023-03-26T05:56:02;11.10;;;4.80;;
72286;SDS011;60221;45.696;16.076;2023-03-26T05:59:01;15.00;;;6.40;;
72286;SDS011;60221;45.696;16.076;2023-03-26T06:01:47;12.40;;;5.40;;
72286;SDS011;60221;45.696;16.076;2023-03-26T06:04:48;10.30;;;4.70;;
72286;SDS011;60221;45.696;16.076;2023-03-26T06:07:27;11.70;;;4.90;;
72286;SDS011;60221;45.696;16.076;2023-03-26T06:10:08;10.40;;;4.80;;
72286;SDS011;60221;45.696;16.076;2023-03-26T06:12:35;10.80;;;4.70;;
72286;SDS011;60221;45.696;16.076;2023-03-26T06:15:03;9.90;;;4.20;;
72286;SDS011;60221;45.696;16.076;2023-03-26T06:17:53;8.90;;;4.40;;
72286;SDS011;60221;45.696;16.076;2023-03-26T06:20:45;9.20;;;4.40;;
72286;SDS011;60221;45.696;16.076;2023-03-26T06:23:25;9.10;;;4.10;;
72286;SDS011;60221;45.696;16.076;2023-03-26T06:26:06;8.30;;;3.60;;
72286;SDS011;60221;45.696;16.076;2023-03-26T06:29:06;7.80;;;3.60;;
72286;SDS011;60221;45.696;16.076;2023-03-26T06:31:44;8.30;;;4.10;;
72286;SDS011;60221;45.696;16.076;2023-03-26T06:34:24;8.70;;;4.00;;
72286;SDS011;60221;45.696;16.076;2023-03-26T06:36:53;8.90;;;4.30;;
72286;SDS011;60221;45.696;16.076;2023-03-26T06:39:20;8.40;;;3.80;;
72286;SDS011;60221;45.696;16.076;2023-03-26T06:42:00;9.80;;;4.40;;
72286;SDS011;60221;45.696;16.076;2023-03-26T06:44:45;9.20;;;4.50;;
72286;SDS011;60221;45.696;16.076;2023-03-26T06:47:18;10.20;;;4.70;;
72286;SDS011;60221;45.696;16.076;2023-03-26T06:50:04;9.70;;;4.40;;
72286;SDS011;60221;45.696;16.076;2023-03-26T06:52:57;8.90;;;4.30;;
72286;SDS011;60221;45.696;16.076;2023-03-26T06:55:57;8.80;;;4.30;;
72286;SDS011;60221;45.696;16.076;2023-03-26T06:58:42;10.00;;;5.00;;
72286;SDS011;60221;45.696;16.076;2023-03-26T07:01:27;9.10;;;3.80;;
72286;SDS011;60221;45.696;16.076;2023-03-26T07:04:20;7.80;;;3.40;;
72286;SDS011;60221;45.696;16.076;2023-03-26T07:07:06;8.30;;;3.70;;
72286;SDS011;60221;45.696;16.076;2023-03-26T07:09:51;7.40;;;3.60;;
72286;SDS011;60221;45.696;16.076;2023-03-26T07:12:37;8.40;;;4.00;;
72286;SDS011;60221;45.696;16.076;2023-03-26T07:15:36;9.30;;;3.60;;
72286;SDS011;60221;45.696;16.076;2023-03-26T07:18:38;8.40;;;3.40;;
72286;SDS011;60221;45.696;16.076;2023-03-26T07:21:08;6.80;;;3.10;;
72286;SDS011;60221;45.696;16.076;2023-03-26T07:23:35;7.00;;;3.20;;
72286;SDS011;60221;45.696;16.076;2023-03-26T07:26:29;5.70;;;2.50;;
72286;SDS011;60221;45.696;16.076;2023-03-26T07:50:15;8.50;;;3.90;;
72286;SDS011;60221;45.696;16.076;2023-03-26T07:53:23;7.70;;;4.00;;
72286;SDS011;60221;45.696;16.076;2023-03-26T08:04:25;14.40;;;8.30;;
72286;SDS011;60221;45.696;16.076;2023-03-26T08:07:27;13.50;;;7.30;;
72286;SDS011;60221;45.696;16.076;2023-03-26T08:13:14;11.60;;;6.90;;
72286;SDS011;60221;45.696;16.076;2023-03-26T08:23:22;10.10;;;4.70;;
72286;SDS011;60221;45.696;16.076;2023-03-26T08:28:36;9.20;;;5.10;;
72286;SDS011;60221;45.696;16.076;2023-03-26T08:31:08;8.90;;;4.60;;
72286;SDS011;60221;45.696;16.076;2023-03-26T08:33:37;8.60;;;4.20;;
72286;SDS011;60221;45.696;16.076;2023-03-26T08:36:08;7.60;;;3.70;;
72286;SDS011;60221;45.696;16.076;2023-03-26T08:38:35;8.50;;;4.10;;
72286;SDS011;60221;45.696;16.076;2023-03-26T09:23:42;6.00;;;2.60;;
72286;SDS011;60221;45.696;16.076;2023-03-26T09:26:22;6.90;;;4.00;;
72286;SDS011;60221;45.696;16.076;2023-03-26T09:41:54;8.00;;;4.20;;
72286;SDS011;60221;45.696;16.076;2023-03-26T09:44:29;8.50;;;4.80;;
72286;SDS011;60221;45.696;16.076;2023-03-26T09:47:18;7.20;;;4.10;;
72286;SDS011;60221;45.696;16.076;2023-03-26T10:18:22;6.70;;;3.60;;
72286;SDS011;60221;45.696;16.076;2023-03-26T10:32:12;4.60;;;1.90;;
72286;SDS011;60221;45.696;16.076;2023-03-26T10:35:01;4.60;;;1.60;;
72286;SDS011;60221;45.696;16.076;2023-03-26T10:42:58;5.60;;;2.00;;
72286;SDS011;60221;45.696;16.076;2023-03-26T10:45:52;4.20;;;1.40;;
72286;SDS011;60221;45.696;16.076;2023-03-26T10:48:22;4.80;;;1.30;;
72286;SDS011;60221;45.696;16.076;2023-03-26T10:58:36;3.10;;;0.80;;
72286;SDS011;60221;45.696;16.076;2023-03-26T11:04:41;5.70;;;1.20;;
72286;SDS011;60221;45.696;16.076;2023-03-26T11:06:54;3.50;;;0.70;;
72286;SDS011;60221;45.696;16.076;2023-03-26T11:32:39;3.70;;;0.80;;
72286;SDS011;60221;45.696;16.076;2023-03-26T11:35:13;2.90;;;0.70;;
72286;SDS011;60221;45.696;16.076;2023-03-26T11:37:51;3.40;;;0.90;;
72286;SDS011;60221;45.696;16.076;2023-03-26T11:40:30;4.50;;;0.70;;
72286;SDS011;60221;45.696;16.076;2023-03-26T11:43:00;2.90;;;0.70;;
72286;SDS011;60221;45.696;16.076;2023-03-26T11:45:29;3.10;;;0.80;;
72286;SDS011;60221;45.696;16.076;2023-03-26T11:48:03;3.90;;;0.80;;
72286;SDS011;60221;45.696;16.076;2023-03-26T11:50:34;3.70;;;0.90;;
72286;SDS011;60221;45.696;16.076;2023-03-26T11:53:14;3.50;;;0.60;;
72286;SDS011;60221;45.696;16.076;2023-03-26T11:55:46;2.60;;;0.70;;
72286;SDS011;60221;45.696;16.076;2023-03-26T11:58:57;3.60;;;1.10;;
72286;SDS011;60221;45.696;16.076;2023-03-26T12:01:04;5.10;;;0.70;;
72286;SDS011;60221;45.696;16.076;2023-03-26T12:03:38;4.00;;;0.70;;
72286;SDS011;60221;45.696;16.076;2023-03-26T12:06:09;3.30;;;0.70;;
72286;SDS011;60221;45.696;16.076;2023-03-26T12:08:48;2.80;;;0.50;;
72286;SDS011;60221;45.696;16.076;2023-03-26T12:11:16;3.30;;;1.20;;
72286;SDS011;60221;45.696;16.076;2023-03-26T12:13:51;3.00;;;0.80;;
72286;SDS011;60221;45.696;16.076;2023-03-26T12:16:19;2.70;;;0.70;;
72286;SDS011;60221;45.696;16.076;2023-03-26T12:18:56;3.00;;;0.60;;
72286;SDS011;60221;45.696;16.076;2023-03-26T12:21:23;4.00;;;0.70;;
72286;SDS011;60221;45.696;16.076;2023-03-26T12:26:44;3.90;;;0.80;;
72286;SDS011;60221;45.696;16.076;2023-03-26T12:29:13;3.50;;;0.90;;
72286;SDS011;60221;45.696;16.076;2023-03-26T12:34:16;3.20;;;0.70;;
72286;SDS011;60221;45.696;16.076;2023-03-26T12:36:50;2.80;;;0.60;;
72286;SDS011;60221;45.696;16.076;2023-03-26T12:39:21;3.80;;;0.70;;
72286;SDS011;60221;45.696;16.076;2023-03-26T12:42:30;3.50;;;0.90;;
72286;SDS011;60221;45.696;16.076;2023-03-26T12:45:22;5.20;;;1.00;;
72286;SDS011;60221;45.696;16.076;2023-03-26T12:47:50;4.30;;;1.30;;
72286;SDS011;60221;45.696;16.076;2023-03-26T12:50:37;4.40;;;1.50;;
72286;SDS011;60221;45.696;16.076;2023-03-26T12:53:14;7.10;;;1.30;;
72286;SDS011;60221;45.696;16.076;2023-03-26T12:55:51;5.80;;;0.80;;
72286;SDS011;60221;45.696;16.076;2023-03-26T13:03:33;5.10;;;1.50;;
72286;SDS011;60221;45.696;16.076;2023-03-26T13:13:59;5.00;;;1.10;;
72286;SDS011;60221;45.696;16.076;2023-03-26T13:19:00;5.60;;;1.40;;
72286;SDS011;60221;45.696;16.076;2023-03-26T13:21:34;4.50;;;0.90;;
72286;SDS011;60221;45.696;16.076;2023-03-26T13:44:27;4.60;;;1.10;;
72286;SDS011;60221;45.696;16.076;2023-03-26T13:47:19;4.20;;;1.30;;
72286;SDS011;60221;45.696;16.076;2023-03-26T13:49:57;5.60;;;1.40;;
72286;SDS011;60221;45.696;16.076;2023-03-26T13:52:32;8.20;;;1.30;;
72286;SDS011;60221;45.696;16.076;2023-03-26T13:57:44;5.60;;;1.50;;
72286;SDS011;60221;45.696;16.076;2023-03-26T14:00:17;4.70;;;0.90;;
72286;SDS011;60221;45.696;16.076;2023-03-26T14:03:06;4.70;;;1.70;;
72286;SDS011;60221;45.696;16.076;2023-03-26T14:05:40;5.90;;;1.30;;
72286;SDS011;60221;45.696;16.076;2023-03-26T14:08:25;5.70;;;1.30;;
72286;SDS011;60221;45.696;16.076;2023-03-26T14:11:37;4.40;;;1.20;;
72286;SDS011;60221;45.696;16.076;2023-03-26T14:14:03;4.30;;;1.10;;
72286;SDS011;60221;45.696;16.076;2023-03-26T14:16:45;6.90;;;1.80;;
72286;SDS011;60221;45.696;16.076;2023-03-26T14:35:04;5.10;;;1.00;;
72286;SDS011;60221;45.696;16.076;2023-03-26T14:47:55;4.00;;;0.90;;
72286;SDS011;60221;45.696;16.076;2023-03-26T14:50:37;5.00;;;1.10;;
72286;SDS011;60221;45.696;16.076;2023-03-26T14:53:11;7.70;;;1.50;;
72286;SDS011;60221;45.696;16.076;2023-03-26T14:58:15;4.90;;;1.10;;
72286;SDS011;60221;45.696;16.076;2023-03-26T15:00:55;4.00;;;0.90;;
72286;SDS011;60221;45.696;16.076;2023-03-26T15:03:54;4.50;;;1.10;;
72286;SDS011;60221;45.696;16.076;2023-03-26T15:06:51;5.10;;;0.90;;
72286;SDS011;60221;45.696;16.076;2023-03-26T15:12:13;4.30;;;0.90;;
72286;SDS011;60221;45.696;16.076;2023-03-26T15:19:55;4.80;;;1.10;;
72286;SDS011;60221;45.696;16.076;2023-03-26T15:25:33;4.00;;;1.00;;
72286;SDS011;60221;45.696;16.076;2023-03-26T15:30:53;6.10;;;1.10;;
72286;SDS011;60221;45.696;16.076;2023-03-26T15:33:42;3.80;;;0.90;;
72286;SDS011;60221;45.696;16.076;2023-03-26T15:39:23;4.70;;;0.70;;
72286;SDS011;60221;45.696;16.076;2023-03-26T15:42:10;4.20;;;0.80;;
72286;SDS011;60221;45.696;16.076;2023-03-26T15:49:53;4.50;;;1.20;;
72286;SDS011;60221;45.696;16.076;2023-03-26T15:52:30;4.70;;;1.10;;
72286;SDS011;60221;45.696;16.076;2023-03-26T15:57:43;5.70;;;0.80;;
72286;SDS011;60221;45.696;16.076;2023-03-26T16:10:37;8.40;;;0.80;;
72286;SDS011;60221;45.696;16.076;2023-03-26T16:13:19;5.90;;;0.80;;
72286;SDS011;60221;45.696;16.076;2023-03-26T16:15:55;5.70;;;0.80;;
72286;SDS011;60221;45.696;16.076;2023-03-26T16:21:01;3.60;;;0.90;;
72286;SDS011;60221;45.696;16.076;2023-03-26T16:31:22;19.70;;;9.00;;
72286;SDS011;60221;45.696;16.076;2023-03-26T16:46:52;12.20;;;4.10;;
72286;SDS011;60221;45.696;16.076;2023-03-26T16:49:31;11.80;;;4.30;;
72286;SDS011;60221;45.696;16.076;2023-03-26T16:52:14;7.90;;;2.50;;
72286;SDS011;60221;45.696;16.076;2023-03-26T16:55:13;7.60;;;2.00;;
72286;SDS011;60221;45.696;16.076;2023-03-26T16:57:52;6.60;;;2.40;;
72286;SDS011;60221;45.696;16.076;2023-03-26T17:00:28;6.20;;;1.60;;
72286;SDS011;60221;45.696;16.076;2023-03-26T17:03:14;6.30;;;1.50;;
72286;SDS011;60221;45.696;16.076;2023-03-26T17:16:34;7.00;;;2.30;;
72286;SDS011;60221;45.696;16.076;2023-03-26T17:30:04;14.10;;;5.90;;
72286;SDS011;60221;45.696;16.076;2023-03-26T17:33:09;17.40;;;6.60;;
72286;SDS011;60221;45.696;16.076;2023-03-26T17:35:38;12.90;;;6.60;;
72286;SDS011;60221;45.696;16.076;2023-03-26T17:40:49;17.40;;;8.10;;
72286;SDS011;60221;45.696;16.076;2023-03-26T17:46:17;12.10;;;5.90;;
72286;SDS011;60221;45.696;16.076;2023-03-26T17:48:48;18.10;;;10.10;;
72286;SDS011;60221;45.696;16.076;2023-03-26T17:51:34;15.40;;;9.50;;
72286;SDS011;60221;45.696;16.076;2023-03-26T17:54:10;11.80;;;5.20;;
72286;SDS011;60221;45.696;16.076;2023-03-26T17:56:40;12.70;;;5.80;;
72286;SDS011;60221;45.696;16.076;2023-03-26T17:59:09;13.60;;;6.00;;
72286;SDS011;60221;45.696;16.076;2023-03-26T18:01:43;16.20;;;6.50;;
72286;SDS011;60221;45.696;16.076;2023-03-26T18:04:14;24.20;;;11.10;;
72286;SDS011;60221;45.696;16.076;2023-03-26T18:06:49;26.90;;;11.70;;
72286;SDS011;60221;45.696;16.076;2023-03-26T18:16:48;12.10;;;4.60;;
72286;SDS011;60221;45.696;16.076;2023-03-26T18:19:18;9.80;;;4.30;;
72286;SDS011;60221;45.696;16.076;2023-03-26T18:21:47;13.30;;;3.80;;
72286;SDS011;60221;45.696;16.076;2023-03-26T18:24:24;11.30;;;3.40;;
72286;SDS011;60221;45.696;16.076;2023-03-26T18:27:10;10.80;;;3.70;;
72286;SDS011;60221;45.696;16.076;2023-03-26T18:29:41;9.10;;;3.20;;
72286;SDS011;60221;45.696;16.076;2023-03-26T18:32:19;8.80;;;2.90;;
72286;SDS011;60221;45.696;16.076;2023-03-26T18:34:56;8.90;;;3.00;;
72286;SDS011;60221;45.696;16.076;2023-03-26T18:37:25;10.10;;;3.40;;
72286;SDS011;60221;45.696;16.076;2023-03-26T18:42:26;10.60;;;3.60;;
72286;SDS011;60221;45.696;16.076;2023-03-26T18:44:53;11.10;;;4.50;;
72286;SDS011;60221;45.696;16.076;2023-03-26T18:47:27;13.00;;;4.60;;
72286;SDS011;60221;45.696;16.076;2023-03-26T18:49:55;10.40;;;4.40;;
72286;SDS011;60221;45.696;16.076;2023-03-26T18:52:23;11.60;;;3.90;;
72286;SDS011;60221;45.696;16.076;2023-03-26T18:54:53;12.00;;;3.80;;
72286;SDS011;60221;45.696;16.076;2023-03-26T18:57:21;10.00;;;3.80;;
72286;SDS011;60221;45.696;16.076;2023-03-26T18:59:50;10.00;;;3.60;;
72286;SDS011;60221;45.696;16.076;2023-03-26T19:02:17;12.40;;;4.20;;
72286;SDS011;60221;45.696;16.076;2023-03-26T19:04:44;10.80;;;3.50;;
72286;SDS011;60221;45.696;16.076;2023-03-26T19:07:13;10.30;;;3.60;;
72286;SDS011;60221;45.696;16.076;2023-03-26T19:09:41;10.60;;;3.90;;
72286;SDS011;60221;45.696;16.076;2023-03-26T19:12:16;12.40;;;3.50;;
72286;SDS011;60221;45.696;16.076;2023-03-26T19:14:50;10.40;;;4.40;;
72286;SDS011;60221;45.696;16.076;2023-03-26T19:17:19;16.70;;;7.30;;
72286;SDS011;60221;45.696;16.076;2023-03-26T19:19:47;21.60;;;10.10;;
72286;SDS011;60221;45.696;16.076;2023-03-26T19:22:14;22.70;;;11.00;;
72286;SDS011;60221;45.696;16.076;2023-03-26T19:24:42;24.20;;;11.70;;
72286;SDS011;60221;45.696;16.076;2023-03-26T19:27:09;27.50;;;12.40;;
72286;SDS011;60221;45.696;16.076;2023-03-26T19:29:36;23.60;;;11.10;;
72286;SDS011;60221;45.696;16.076;2023-03-26T19:32:14;24.40;;;11.40;;
72286;SDS011;60221;45.696;16.076;2023-03-26T19:34:42;22.20;;;10.60;;
72286;SDS011;60221;45.696;16.076;2023-03-26T19:37:21;18.10;;;8.20;;
72286;SDS011;60221;45.696;16.076;2023-03-26T19:42:22;19.80;;;9.60;;
72286;SDS011;60221;45.696;16.076;2023-03-26T19:44:52;20.70;;;9.80;;
72286;SDS011;60221;45.696;16.076;2023-03-26T19:47:20;25.10;;;12.20;;
72286;SDS011;60221;45.696;16.076;2023-03-26T19:49:58;24.40;;;12.50;;
72286;SDS011;60221;45.696;16.076;2023-03-26T19:52:29;28.70;;;12.70;;
72286;SDS011;60221;45.696;16.076;2023-03-26T19:54:59;29.90;;;12.60;;
72286;SDS011;60221;45.696;16.076;2023-03-26T19:57:28;30.50;;;13.50;;
72286;SDS011;60221;45.696;16.076;2023-03-26T19:59:55;34.80;;;15.50;;
72286;SDS011;60221;45.696;16.076;2023-03-26T20:02:23;34.90;;;17.10;;
72286;SDS011;60221;45.696;16.076;2023-03-26T20:04:50;34.80;;;16.10;;
72286;SDS011;60221;45.696;16.076;2023-03-26T20:07:20;32.80;;;17.10;;
72286;SDS011;60221;45.696;16.076;2023-03-26T20:10:01;32.60;;;15.10;;
72286;SDS011;60221;45.696;16.076;2023-03-26T20:12:28;25.40;;;13.50;;
72286;SDS011;60221;45.696;16.076;2023-03-26T20:14:55;35.40;;;16.70;;
72286;SDS011;60221;45.696;16.076;2023-03-26T20:17:22;34.80;;;16.80;;
72286;SDS011;60221;45.696;16.076;2023-03-26T20:19:49;39.60;;;17.50;;
72286;SDS011;60221;45.696;16.076;2023-03-26T20:22:18;42.30;;;21.00;;
72286;SDS011;60221;45.696;16.076;2023-03-26T20:24:49;39.40;;;19.70;;
72286;SDS011;60221;45.696;16.076;2023-03-26T20:27:17;40.70;;;20.70;;
72286;SDS011;60221;45.696;16.076;2023-03-26T20:29:44;47.60;;;24.30;;
72286;SDS011;60221;45.696;16.076;2023-03-26T20:32:21;45.30;;;22.90;;
72286;SDS011;60221;45.696;16.076;2023-03-26T20:34:52;42.70;;;22.20;;
72286;SDS011;60221;45.696;16.076;2023-03-26T20:37:20;33.40;;;15.30;;
72286;SDS011;60221;45.696;16.076;2023-03-26T20:39:47;29.20;;;14.60;;
72286;SDS011;60221;45.696;16.076;2023-03-26T20:42:14;24.70;;;11.90;;
72286;SDS011;60221;45.696;16.076;2023-03-26T20:44:41;22.30;;;11.60;;
72286;SDS011;60221;45.696;16.076;2023-03-26T20:47:09;23.00;;;12.80;;
72286;SDS011;60221;45.696;16.076;2023-03-26T20:49:37;21.70;;;11.10;;
72286;SDS011;60221;45.696;16.076;2023-03-26T20:52:05;18.20;;;9.20;;
72286;SDS011;60221;45.696;16.076;2023-03-26T20:54:32;19.80;;;9.20;;
72286;SDS011;60221;45.696;16.076;2023-03-26T20:57:01;16.90;;;7.70;;
72286;SDS011;60221;45.696;16.076;2023-03-26T20:59:28;21.00;;;10.10;;
72286;SDS011;60221;45.696;16.076;2023-03-26T21:01:56;18.60;;;9.40;;
72286;SDS011;60221;45.696;16.076;2023-03-26T21:04:23;27.20;;;16.20;;
72286;SDS011;60221;45.696;16.076;2023-03-26T21:06:52;26.10;;;14.50;;
72286;SDS011;60221;45.696;16.076;2023-03-26T21:09:26;35.20;;;21.90;;
72286;SDS011;60221;45.696;16.076;2023-03-26T21:12:05;24.80;;;15.10;;